Time;durP1;ratioP1;P1;durP2;ratioP2;P2;SDS_P1;SDS_P2;PMS_P1;PMS_P2;Temp;Humidity;BMP_temperature;BMP_pressure;BME280_temperature;BME280_humidity;BME280_pressure;Samples;Min_cycle;Max_cycle;Signal;HPM_P1;HPM_P2
2022/10/19 00:00:22;;;;;;;;;;;;;;;-142.75;100.00;78704.69;5030821;28;20012;-66
2022/10/19 00:02:47;;;;;;;;;;;;;;;-142.75;100.00;78718.47;5030785;28;19959;-66
2022/10/19 00:05:13;;;;;;;;;;;;;;;-142.75;100.00;78724.38;5032558;28;19965;-66
2022/10/19 00:07:38;;;;;;;;;;;;;;;-142.75;100.00;78712.56;5012376;28;19921;-66
2022/10/19 00:10:03;;;;;;;;;;;;;;;-142.75;100.00;78736.19;5030730;28;19956;-66
2022/10/19 00:12:29;;;;;;;;;;;;;;;-142.75;100.00;78730.28;5030768;28;20003;-66
2022/10/19 00:14:54;;;;;;;;;;;;;;;-142.75;100.00;78724.38;5030549;28;19986;-66
2022/10/19 00:17:19;;;;;;;;;;;;;;;-142.75;100.00;78734.22;5030081;28;19924;-66
2022/10/19 00:19:44;;;;;;;;;;;;;;;-142.75;100.00;78726.34;5030397;28;19947;-66
2022/10/19 00:22:09;;;;;;;;;;;;;;;-142.75;100.00;78726.34;5013169;28;19928;-66
2022/10/19 00:24:34;;;;;;;;;;;;;;;-142.75;100.00;78716.50;5030374;28;19921;-66
2022/10/19 00:27:00;;;;;;;;;;;;;;;-142.75;100.00;78736.19;5029917;28;19945;-66
2022/10/19 00:29:25;;;;;;;;;;;;;;;-142.75;100.00;78742.09;5030454;28;19921;-66
2022/10/19 00:31:50;;;;;;;;;;;;;;;-142.75;100.00;78748.03;5030008;28;19998;-66
2022/10/19 00:34:15;;;;;;;;;;;;;;;-142.75;100.00;78740.13;5031766;28;19998;-66
2022/10/19 00:36:41;;;;;;;;;;;;;;;-142.75;100.00;78748.03;4996194;28;800679;-66
2022/10/19 00:39:07;;;;;;;;;;;;;;;-142.75;100.00;78759.84;5019219;28;19967;-66
2022/10/19 00:41:34;;;;;;;;;;;;;;;-142.75;100.00;78775.59;5031147;28;20383;-66
2022/10/19 00:44:04;;;;;;;;;;;;;;;-142.75;100.00;78775.59;5030933;28;19936;-66
2022/10/19 00:46:31;;;;;;;;;;;;;;;-142.75;100.00;78783.47;5049866;28;20306;-66
2022/10/19 00:49:01;;;;;;;;;;;;;;;-142.75;100.00;78795.28;5050268;28;20008;-66
2022/10/19 00:51:27;;;;;;;;;;;;;;;-142.75;100.00;78809.06;5050723;28;20015;-66
2022/10/19 00:53:52;;;;;;;;;;;;;;;-142.75;100.00;78813.00;5050913;28;20004;-66
2022/10/19 00:56:18;;;;;;;;;;;;;;;-142.75;100.00;78826.81;5050475;28;20015;-66
2022/10/19 00:58:43;;;;;;;;;;;;;;;-142.75;100.00;78830.75;5015968;28;19993;-66
2022/10/19 01:01:10;;;;;;;;;;;;;;;-142.75;100.00;78830.75;5050475;28;19971;-66
2022/10/19 01:03:35;;;;;;;;;;;;;;;-142.75;100.00;78828.78;5050242;28;20325;-66
2022/10/19 01:06:01;;;;;;;;;;;;;;;-142.75;100.00;78830.75;5050335;28;19921;-66
2022/10/19 01:08:27;;;;;;;;;;;;;;;-142.75;100.00;78820.88;5050281;28;20370;-66
2022/10/19 01:11:13;;;;;;;;;;;;;;;-142.75;100.00;78822.88;5050154;28;19951;-66
2022/10/19 01:13:45;;;;;;;;;;;;;;;-142.75;100.00;78826.81;5050268;28;20285;-66
2022/10/19 01:16:27;;;;;;;;;;;;;;;-142.75;100.00;78834.69;5050123;28;19954;-66
2022/10/19 01:19:10;;;;;;;;;;;;;;;-142.75;100.00;78838.63;5049927;28;20341;-66
2022/10/19 01:21:49;;;;;;;;;;;;;;;-142.75;100.00;78822.88;5050398;28;19916;-66
2022/10/19 01:24:25;;;;;;;;;;;;;;;-142.75;100.00;78834.69;5050219;28;19923;-66
2022/10/19 01:27:12;;;;;;;;;;;;;;;-142.75;100.00;78822.88;5043219;28;20350;-66
2022/10/19 01:29:38;;;;;;;;;;;;;;;-142.75;100.00;78807.09;5046298;28;19971;-67
2022/10/19 01:32:20;;;;;;;;;;;;;;;-142.75;100.00;78797.25;5034780;28;19921;-66
2022/10/19 01:34:49;;;;;;;;;;;;;;;-142.75;100.00;78799.22;5047869;28;19960;-66
2022/10/19 01:37:21;;;;;;;;;;;;;;;-142.75;100.00;78805.13;5049342;28;20394;-66
2022/10/19 01:39:52;;;;;;;;;;;;;;;-142.75;100.00;78803.16;5034358;28;20008;-66
2022/10/19 01:42:20;;;;;;;;;;;;;;;-142.75;100.00;78791.34;5030256;28;19979;-67
2022/10/19 01:44:49;;;;;;;;;;;;;;;-142.75;100.00;78789.38;5047969;28;19968;-67
2022/10/19 01:47:17;;;;;;;;;;;;;;;-142.75;100.00;78793.31;5049174;28;19948;-66
2022/10/19 01:49:48;;;;;;;;;;;;;;;-142.75;100.00;78795.28;5049664;28;20374;-66
2022/10/19 01:52:15;;;;;;;;;;;;;;;-142.75;100.00;78795.28;5050112;28;19921;-66
2022/10/19 01:54:43;;;;;;;;;;;;;;;-142.75;100.00;78789.38;5049720;28;20043;-66
2022/10/19 01:57:10;;;;;;;;;;;;;;;-142.75;100.00;78775.59;5049334;28;19962;-66
2022/10/19 01:59:36;;;;;;;;;;;;;;;-142.75;100.00;78755.91;5049578;28;19917;-66
2022/10/19 02:02:03;;;;;;;;;;;;;;;-142.75;100.00;78753.94;5049394;28;19971;-66
2022/10/19 02:04:28;;;;;;;;;;;;;;;-142.75;100.00;78759.84;5049534;28;19917;-66
2022/10/19 02:06:54;;;;;;;;;;;;;;;-142.75;100.00;78771.66;5049258;28;19927;-66
2022/10/19 02:09:19;;;;;;;;;;;;;;;-142.75;100.00;78761.81;5049437;28;20446;-66
2022/10/19 02:11:49;;;;;;;;;;;;;;;-142.75;100.00;78775.59;5049504;28;20302;-66
2022/10/19 02:14:16;;;;;;;;;;;;;;;-142.75;100.00;78775.59;5049316;28;19925;-67
2022/10/19 02:16:45;;;;;;;;;;;;;;;-142.75;100.00;78814.97;5049098;28;19928;-66
2022/10/19 02:19:11;;;;;;;;;;;;;;;-142.75;100.00;78814.97;5049314;28;19947;-66
2022/10/19 02:21:36;;;;;;;;;;;;;;;-142.75;100.00;78803.16;5049543;28;19917;-66
2022/10/19 02:24:02;;;;;;;;;;;;;;;-142.75;100.00;78818.91;5049697;28;19917;-66
2022/10/19 02:26:27;;;;;;;;;;;;;;;-142.75;100.00;78828.78;5031406;28;19950;-66
2022/10/19 02:28:53;;;;;;;;;;;;;;;-142.75;100.00;78836.66;5048837;28;20362;-67
2022/10/19 02:31:18;;;;;;;;;;;;;;;-142.75;100.00;78846.50;5049619;28;19921;-66
2022/10/19 02:33:44;;;;;;;;;;;;;;;-142.75;100.00;78846.50;5049469;28;19917;-66
2022/10/19 02:36:09;;;;;;;;;;;;;;;-142.75;100.00;78848.47;5049095;28;19979;-66
2022/10/19 02:38:34;;;;;;;;;;;;;;;-142.75;100.00;78842.56;5048910;28;19923;-66
2022/10/19 02:41:17;;;;;;;;;;;;;;;-142.75;100.00;78836.66;5040899;28;19959;-66
2022/10/19 02:43:46;;;;;;;;;;;;;;;-142.75;100.00;78850.44;5029495;28;19921;-66
2022/10/19 02:46:20;;;;;;;;;;;;;;;-142.75;100.00;78866.19;5029193;28;19929;-66
2022/10/19 02:48:45;;;;;;;;;;;;;;;-142.75;100.00;78866.19;5011420;28;19917;-66
2022/10/19 02:51:29;;;;;;;;;;;;;;;-142.75;100.00;78885.88;5029405;28;20031;-66
2022/10/19 02:53:54;;;;;;;;;;;;;;;-142.75;100.00;78879.97;5048449;28;19917;-66
2022/10/19 02:56:20;;;;;;;;;;;;;;;-142.75;100.00;78878.00;5050997;28;20281;-66
2022/10/19 02:58:45;;;;;;;;;;;;;;;-142.75;100.00;78878.00;5052496;28;19928;-66
2022/10/19 03:01:10;;;;;;;;;;;;;;;-142.75;100.00;78895.75;5052494;28;20011;-66
2022/10/19 03:03:35;;;;;;;;;;;;;;;-142.75;100.00;78897.72;5052738;28;20019;-67
2022/10/19 03:06:01;;;;;;;;;;;;;;;-142.75;100.00;78897.72;5052591;28;19932;-66
2022/10/19 03:08:26;;;;;;;;;;;;;;;-142.75;100.00;78879.97;5052190;28;19924;-66
2022/10/19 03:10:51;;;;;;;;;;;;;;;-142.75;100.00;78864.22;5052334;28;19924;-66
2022/10/19 03:13:16;;;;;;;;;;;;;;;-142.75;100.00;78854.38;5052810;28;20386;-66
2022/10/19 03:15:41;;;;;;;;;;;;;;;-142.75;100.00;78866.19;5052404;28;19917;-66
2022/10/19 03:18:06;;;;;;;;;;;;;;;-142.75;100.00;78879.97;5052151;28;19916;-66
2022/10/19 03:20:32;;;;;;;;;;;;;;;-142.75;100.00;78883.91;5052238;28;19917;-66
2022/10/19 03:22:57;;;;;;;;;;;;;;;-142.75;100.00;78883.91;5052836;28;20002;-66
2022/10/19 03:25:22;;;;;;;;;;;;;;;-142.75;100.00;78885.88;5052137;28;19927;-66
2022/10/19 03:27:47;;;;;;;;;;;;;;;-142.75;100.00;78878.00;5045627;28;20306;-65
2022/10/19 03:30:13;;;;;;;;;;;;;;;-142.75;100.00;78874.06;5036434;28;19917;-66
2022/10/19 03:32:38;;;;;;;;;;;;;;;-142.75;100.00;78881.94;5032318;28;19963;-66
2022/10/19 03:35:03;;;;;;;;;;;;;;;-142.75;100.00;78878.00;5032359;28;19925;-66
2022/10/19 03:37:28;;;;;;;;;;;;;;;-142.75;100.00;78883.91;5031777;28;19917;-66
2022/10/19 03:39:54;;;;;;;;;;;;;;;-142.75;100.00;78881.94;5033769;28;20414;-66
2022/10/19 03:42:19;;;;;;;;;;;;;;;-142.75;100.00;78876.03;5031668;28;19925;-67
2022/10/19 03:44:44;;;;;;;;;;;;;;;-142.75;100.00;78885.88;5031681;28;19917;-66
2022/10/19 03:47:09;;;;;;;;;;;;;;;-142.75;100.00;78874.06;5031271;28;19921;-66
2022/10/19 03:49:34;;;;;;;;;;;;;;;-142.75;100.00;78866.19;5031455;28;19917;-66
2022/10/19 03:51:59;;;;;;;;;;;;;;;-142.75;100.00;78850.44;5031507;28;19917;-66
2022/10/19 03:54:25;;;;;;;;;;;;;;;-142.75;100.00;78850.44;5031775;28;19924;-66
2022/10/19 03:56:50;;;;;;;;;;;;;;;-142.75;100.00;78881.94;5030550;28;20499;-66
2022/10/19 03:59:15;;;;;;;;;;;;;;;-142.75;100.00;78860.28;5030579;28;19992;-67
2022/10/19 04:01:44;;;;;;;;;;;;;;;-142.75;100.00;78864.22;5030627;28;20008;-66
2022/10/19 04:04:11;;;;;;;;;;;;;;;-142.75;100.00;78860.28;5030484;28;19917;-66
2022/10/19 04:06:37;;;;;;;;;;;;;;;-142.75;100.00;78856.34;5029919;28;19921;-66
2022/10/19 04:09:04;;;;;;;;;;;;;;;-142.75;100.00;78852.41;5029855;28;19962;-66
2022/10/19 04:11:29;;;;;;;;;;;;;;;-142.75;100.00;78850.44;5030577;28;19940;-66
2022/10/19 04:13:55;;;;;;;;;;;;;;;-142.75;100.00;78842.56;5035864;28;19921;-66
2022/10/19 04:16:21;;;;;;;;;;;;;;;-142.75;100.00;78834.69;5050290;28;20007;-67
2022/10/19 04:18:47;;;;;;;;;;;;;;;-142.75;100.00;78858.31;5050234;28;20382;-66
2022/10/19 04:21:39;;;;;;;;;;;;;;;-142.75;100.00;78840.59;5050617;28;19917;-66
2022/10/19 04:24:14;;;;;;;;;;;;;;;-142.75;100.00;78826.81;5047672;28;20479;-66
2022/10/19 04:26:41;;;;;;;;;;;;;;;-142.75;100.00;78822.88;5033201;28;20298;-66
2022/10/19 04:29:07;;;;;;;;;;;;;;;-142.75;100.00;78822.88;5052396;28;19917;-66
2022/10/19 04:31:32;;;;;;;;;;;;;;;-142.75;100.00;78813.00;5052332;28;19924;-66
2022/10/19 04:33:57;;;;;;;;;;;;;;;-142.75;100.00;78814.97;5052286;28;19951;-66
2022/10/19 04:36:22;;;;;;;;;;;;;;;-142.75;100.00;78816.94;5052080;28;19924;-66
2022/10/19 04:38:48;;;;;;;;;;;;;;;-142.75;100.00;78822.88;5034181;28;20007;-66
2022/10/19 04:41:14;;;;;;;;;;;;;;;-142.75;100.00;78822.88;5034321;28;20297;-66
2022/10/19 04:43:39;;;;;;;;;;;;;;;-142.75;100.00;78824.84;5052048;28;20286;-66
2022/10/19 04:46:09;;;;;;;;;;;;;;;-142.75;100.00;78822.88;5052090;28;19966;-66
2022/10/19 04:48:34;;;;;;;;;;;;;;;-142.75;100.00;78836.66;5051712;28;19917;-66
2022/10/19 04:51:00;;;;;;;;;;;;;;;-142.75;100.00;78830.75;5043626;28;19933;-66
2022/10/19 04:53:25;;;;;;;;;;;;;;;-142.75;100.00;78832.72;5014687;28;19917;-66
2022/10/19 04:55:50;;;;;;;;;;;;;;;-142.75;100.00;78834.69;5014284;28;20286;-66
2022/10/19 04:58:16;;;;;;;;;;;;;;;-142.75;100.00;78858.31;5031606;28;19979;-67
2022/10/19 05:00:41;;;;;;;;;;;;;;;-142.75;100.00;78848.47;5031970;28;19921;-66
2022/10/19 05:03:06;;;;;;;;;;;;;;;-142.75;100.00;78854.38;5031707;28;20007;-67
2022/10/19 05:05:32;;;;;;;;;;;;;;;-142.75;100.00;78834.69;5031913;28;20008;-66
2022/10/19 05:07:57;;;;;;;;;;;;;;;-142.75;100.00;78830.75;5031436;28;20409;-66
2022/10/19 05:10:23;;;;;;;;;;;;;;;-142.75;100.00;78822.88;5031728;28;20012;-66
2022/10/19 05:12:48;;;;;;;;;;;;;;;-142.75;100.00;78830.75;5031806;28;19965;-66
2022/10/19 05:15:13;;;;;;;;;;;;;;;-142.75;100.00;78832.72;5031766;28;19924;-66
2022/10/19 05:17:38;;;;;;;;;;;;;;;-142.75;100.00;78834.69;5031223;28;20363;-66
2022/10/19 05:20:04;;;;;;;;;;;;;;;-142.75;100.00;78838.63;5031409;28;19921;-66
2022/10/19 05:22:29;;;;;;;;;;;;;;;-142.75;100.00;78828.78;5031561;28;19939;-66
2022/10/19 05:24:54;;;;;;;;;;;;;;;-142.75;100.00;78830.75;5031428;28;20016;-66
2022/10/19 05:27:19;;;;;;;;;;;;;;;-142.75;100.00;78830.75;5031100;28;19928;-66
2022/10/19 05:29:44;;;;;;;;;;;;;;;-142.75;100.00;78826.81;5031528;28;20310;-66
2022/10/19 05:32:09;;;;;;;;;;;;;;;-142.75;100.00;78834.69;5015011;28;19917;-66
2022/10/19 05:34:35;;;;;;;;;;;;;;;-142.75;100.00;78854.38;5031320;28;19928;-66
2022/10/19 05:37:00;;;;;;;;;;;;;;;-142.75;100.00;78844.53;5062761;23;19940;-66
2022/10/19 05:39:25;;;;;;;;;;;;;;;-142.75;100.00;78846.50;5071548;28;19928;-67
2022/10/19 05:41:50;;;;;;;;;;;;;;;-142.75;100.00;78846.50;5059279;28;19917;-67
2022/10/19 05:44:20;;;;;;;;;;;;;;;-142.75;100.00;78866.19;5060158;28;20344;-67
2022/10/19 05:46:46;;;;;;;;;;;;;;;-142.75;100.00;78856.34;5081934;28;19929;-69
2022/10/19 05:49:11;;;;;;;;;;;;;;;-142.75;100.00;78846.50;5091223;28;19961;-67
2022/10/19 05:51:37;;;;;;;;;;;;;;;-142.75;100.00;78838.63;5073215;28;19989;-67
2022/10/19 05:54:02;;;;;;;;;;;;;;;-142.75;100.00;78848.47;5091122;28;19916;-67
2022/10/19 05:56:28;;;;;;;;;;;;;;;-142.75;100.00;78848.47;5091052;28;20397;-66
2022/10/19 05:58:55;;;;;;;;;;;;;;;-142.75;100.00;78836.66;5072858;28;19970;-67
2022/10/19 06:01:20;;;;;;;;;;;;;;;-142.75;100.00;78842.56;5085687;28;19917;-68
2022/10/19 06:03:46;;;;;;;;;;;;;;;-142.75;100.00;78826.81;5061699;28;19920;-67
2022/10/19 06:06:11;;;;;;;;;;;;;;;-142.75;100.00;78828.78;5060725;28;19917;-68
2022/10/19 06:08:37;;;;;;;;;;;;;;;-142.75;100.00;78832.72;5069874;28;20403;-68
2022/10/19 06:11:14;;;;;;;;;;;;;;;-142.75;100.00;78830.75;5073066;28;20389;-67
2022/10/19 06:13:40;;;;;;;;;;;;;;;-142.75;100.00;78842.56;5091020;28;19927;-69
2022/10/19 06:16:06;;;;;;;;;;;;;;;-142.75;100.00;78836.66;5090989;28;19916;-68
2022/10/19 06:18:31;;;;;;;;;;;;;;;-142.75;100.00;78828.78;5090647;28;19916;-66
2022/10/19 06:21:00;;;;;;;;;;;;;;;-142.75;100.00;78838.63;5090982;28;19916;-68
2022/10/19 06:23:25;;;;;;;;;;;;;;;-142.75;100.00;78832.72;5057239;28;20263;-67
2022/10/19 06:25:50;;;;;;;;;;;;;;;-142.75;100.00;78830.75;5070838;28;20023;-67
2022/10/19 06:28:16;;;;;;;;;;;;;;;-142.75;100.00;78816.94;5052418;28;19923;-67
2022/10/19 06:30:41;;;;;;;;;;;;;;;-142.75;100.00;78809.06;5071728;28;19916;-67
2022/10/19 06:33:06;;;;;;;;;;;;;;;-142.75;100.00;78809.06;5074660;28;19920;-68
2022/10/19 06:35:31;;;;;;;;;;;;;;;-142.75;100.00;78795.28;5074220;28;20298;-68
2022/10/19 06:37:57;;;;;;;;;;;;;;;-142.75;100.00;78809.06;5073908;28;19947;-69
2022/10/19 06:40:23;;;;;;;;;;;;;;;-142.75;100.00;78799.22;5056497;28;19924;-68
2022/10/19 06:42:48;;;;;;;;;;;;;;;-142.75;100.00;78779.53;5074506;28;19917;-68
2022/10/19 06:45:13;;;;;;;;;;;;;;;-142.75;100.00;78771.66;5074208;28;20386;-68
2022/10/19 06:47:38;;;;;;;;;;;;;;;-142.75;100.00;78767.72;5073979;28;19994;-68
2022/10/19 06:50:04;;;;;;;;;;;;;;;-142.75;100.00;78765.75;5056338;28;19920;-69
2022/10/19 06:52:30;;;;;;;;;;;;;;;-142.75;100.00;78751.97;5056334;28;19971;-68
2022/10/19 06:54:55;;;;;;;;;;;;;;;-142.75;100.00;78732.25;5074276;28;19927;-68
2022/10/19 06:57:20;;;;;;;;;;;;;;;-142.75;100.00;78738.16;5055879;28;20357;-69
2022/10/19 06:59:45;;;;;;;;;;;;;;;-142.75;100.00;78732.25;5056193;28;19916;-68
2022/10/19 07:02:10;;;;;;;;;;;;;;;-142.75;100.00;78728.31;5070767;28;20305;-68
2022/10/19 07:04:36;;;;;;;;;;;;;;;-142.75;100.00;78704.69;5053395;28;20386;-68
2022/10/19 07:07:01;;;;;;;;;;;;;;;-142.75;100.00;78677.13;5075384;28;20313;-68
2022/10/19 07:09:26;;;;;;;;;;;;;;;-142.75;100.00;78641.66;5077001;28;20351;-67
2022/10/19 07:11:51;;;;;;;;;;;;;;;-142.75;100.00;78612.13;5057696;28;19968;-69
2022/10/19 07:14:17;;;;;;;;;;;;;;;-142.75;100.00;78586.53;5090940;28;19962;-66
2022/10/19 07:16:42;;;;;;;;;;;;;;;-142.75;100.00;78566.81;5093618;28;19916;-69
2022/10/19 07:19:07;;;;;;;;;;;;;;;-142.75;100.00;78541.22;5072676;28;20389;-68
2022/10/19 07:21:34;;;;;;;;;;;;;;;-142.75;100.00;78509.72;5070269;28;20390;-65
2022/10/19 07:23:59;;;;;;;;;;;;;;;-142.75;100.00;78501.84;5070944;28;20017;-68
2022/10/19 07:26:26;;;;;;;;;;;;;;;-142.75;100.00;78495.94;5053656;28;20043;-67
2022/10/19 07:28:53;;;;;;;;;;;;;;;-142.75;100.00;78462.44;5068220;28;19992;-68
2022/10/19 07:31:20;;;;;;;;;;;;;;;-142.75;100.00;78428.97;5067365;28;20378;-66
2022/10/19 07:33:46;;;;;;;;;;;;;;;-142.75;100.00;78399.44;5059995;28;19923;-68
2022/10/19 07:36:12;;;;;;;;;;;;;;;-142.75;100.00;78387.59;5078758;28;19916;-69
2022/10/19 07:38:38;;;;;;;;;;;;;;;-142.75;100.00;78358.06;5073249;28;19939;-68
2022/10/19 07:41:05;;;;;;;;;;;;;;;-142.75;100.00;78330.50;5064004;28;20366;-70
2022/10/19 07:43:30;;;;;;;;;;;;;;;-142.75;100.00;78308.84;5081203;28;19923;-68
2022/10/19 07:46:05;;;;;;;;;;;;;;;-142.75;100.00;78310.81;5082471;28;19920;-68
2022/10/19 07:48:30;;;;;;;;;;;;;;;-142.75;100.00;78291.09;5065934;28;19928;-68
2022/10/19 07:50:56;;;;;;;;;;;;;;;-142.75;100.00;78287.16;5053532;28;19970;-69
2022/10/19 07:53:21;;;;;;;;;;;;;;;-142.75;100.00;78243.84;5079890;28;19982;-68
2022/10/19 07:55:46;;;;;;;;;;;;;;;-142.75;100.00;78208.41;5082065;28;20304;-69
2022/10/19 07:58:11;;;;;;;;;;;;;;;-142.75;100.00;78214.31;5077342;28;20309;-68
2022/10/19 08:00:37;;;;;;;;;;;;;;;-142.75;100.00;78204.47;5074538;28;19927;-68
2022/10/19 08:03:02;;;;;;;;;;;;;;;-142.75;100.00;78188.72;5049093;28;19917;-68
2022/10/19 08:05:27;;;;;;;;;;;;;;;-142.75;100.00;78180.81;5072475;28;19928;-68
2022/10/19 08:07:53;;;;;;;;;;;;;;;-142.75;100.00;78147.34;5071801;28;20343;-68
2022/10/19 08:10:18;;;;;;;;;;;;;;;-142.75;100.00;78111.91;5069252;28;19920;-67
2022/10/19 08:12:43;;;;;;;;;;;;;;;-142.75;100.00;78062.69;5080466;28;19923;-68
2022/10/19 08:15:08;;;;;;;;;;;;;;;-142.75;100.00;78066.63;5072152;28;19927;-68
2022/10/19 08:17:35;;;;;;;;;;;;;;;-142.75;100.00;78050.84;5072168;28;19916;-71
2022/10/19 08:20:00;;;;;;;;;;;;;;;-142.75;100.00;78033.13;5079929;28;19916;-68
2022/10/19 08:22:25;;;;;;;;;;;;;;;-142.75;100.00;77987.84;5079829;28;20404;-65
2022/10/19 08:24:50;;;;;;;;;;;;;;;-142.75;100.00;77983.91;5078504;28;19931;-68
2022/10/19 08:27:16;;;;;;;;;;;;;;;-142.75;100.00;77920.91;5072091;28;19937;-69
2022/10/19 08:29:41;;;;;;;;;;;;;;;-142.75;100.00;77889.38;5057463;28;20003;-69
2022/10/19 08:32:06;;;;;;;;;;;;;;;-142.75;100.00;77899.22;5073267;28;19955;-68
2022/10/19 08:34:32;;;;;;;;;;;;;;;-142.75;100.00;77889.38;5076556;28;19916;-68
2022/10/19 08:36:57;;;;;;;;;;;;;;;-142.75;100.00;77867.72;5092074;28;19922;-71
2022/10/19 08:39:22;;;;;;;;;;;;;;;-142.75;100.00;77883.47;5092600;28;21391;-69
2022/10/19 08:41:58;;;;;;;;;;;;;;;-142.75;100.00;77877.56;5092360;28;19978;-70
2022/10/19 08:44:35;;;;;;;;;;;;;;;-142.75;100.00;77814.56;5092320;28;19924;-69
2022/10/19 08:47:05;;;;;;;;;;;;;;;-142.75;100.00;77798.81;5073729;28;19916;-69
2022/10/19 08:49:31;;;;;;;;;;;;;;;-142.75;100.00;77771.25;5092328;28;19923;-68
2022/10/19 08:52:03;;;;;;;;;;;;;;;-142.75;100.00;77765.34;5060681;28;20314;-69
2022/10/19 08:54:36;;;;;;;;;;;;;;;-142.75;100.00;77775.19;5054618;28;21449;-69
2022/10/19 08:57:20;;;;;;;;;;;;;;;-142.75;100.00;77731.88;5069800;28;19935;-70
2022/10/19 08:59:51;;;;;;;;;;;;;;;-142.75;100.00;77723.97;5071269;28;20006;-67
2022/10/19 09:02:16;;;;;;;;;;;;;;;-142.75;100.00;77718.06;5071440;28;20014;-69
2022/10/19 09:04:44;;;;;;;;;;;;;;;-142.75;100.00;77708.22;5071728;28;20341;-69
2022/10/19 09:07:29;;;;;;;;;;;;;;;-142.75;100.00;77735.81;5073069;28;19917;-69
2022/10/19 09:10:04;;;;;;;;;;;;;;;-142.75;100.00;77733.84;5091927;28;19916;-68
2022/10/19 09:12:52;;;;;;;;;;;;;;;-142.75;100.00;77727.94;5091743;28;19920;-68
2022/10/19 09:15:19;;;;;;;;;;;;;;;-142.75;100.00;77720.03;5073562;28;19916;-68
2022/10/19 09:17:45;;;;;;;;;;;;;;;-142.75;100.00;77745.66;5091263;28;19939;-68
2022/10/19 09:20:32;;;;;;;;;;;;;;;-142.75;100.00;77741.72;5091753;28;19920;-69
2022/10/19 09:23:03;;;;;;;;;;;;;;;-142.75;100.00;77692.47;5091691;28;20411;-66
2022/10/19 09:25:29;;;;;;;;;;;;;;;-142.75;100.00;77700.34;5091468;28;20384;-66
2022/10/19 09:28:19;;;;;;;;;;;;;;;-142.75;100.00;77727.94;5091071;28;19916;-68
2022/10/19 09:30:46;;;;;;;;;;;;;;;-142.75;100.00;77698.38;5091644;28;20270;-68
2022/10/19 09:33:18;;;;;;;;;;;;;;;-142.75;100.00;77657.03;5091378;28;20336;-70
2022/10/19 09:35:45;;;;;;;;;;;;;;;-142.75;100.00;77657.03;5091539;28;19951;-68
2022/10/19 09:38:11;;;;;;;;;;;;;;;-142.75;100.00;77660.97;5073108;28;20555;-67
2022/10/19 09:40:36;;;;;;;;;;;;;;;-142.75;100.00;77666.88;5091393;28;20011;-68
2022/10/19 09:43:18;;;;;;;;;;;;;;;-142.75;100.00;77672.78;5091428;28;19922;-67
2022/10/19 09:46:03;;;;;;;;;;;;;;;-142.75;100.00;77722.00;5091522;28;19964;-67
2022/10/19 09:48:30;;;;;;;;;;;;;;;-142.75;100.00;77731.88;5090911;28;19920;-68
2022/10/19 09:51:00;;;;;;;;;;;;;;;-142.75;100.00;77788.97;5091294;28;19954;-67
2022/10/19 09:53:25;;;;;;;;;;;;;;;-142.75;100.00;77783.06;5072217;28;20007;-69
2022/10/19 09:55:59;;;;;;;;;;;;;;;-142.75;100.00;77775.19;5046715;28;19999;-67
2022/10/19 09:58:25;;;;;;;;;;;;;;;-142.75;100.00;77749.59;5086992;28;19961;-67
2022/10/19 10:00:55;;;;;;;;;;;;;;;-142.75;100.00;77727.94;5091106;28;20345;-68
2022/10/19 10:03:30;;;;;;;;;;;;;;;-142.75;100.00;77739.75;5090542;28;19989;-68
2022/10/19 10:06:06;;;;;;;;;;;;;;;-142.75;100.00;77753.53;5074428;28;20014;-67
2022/10/19 10:08:36;;;;;;;;;;;;;;;-142.75;100.00;77747.63;5094776;28;19962;-69
2022/10/19 10:11:10;;;;;;;;;;;;;;;-142.75;100.00;77745.66;5095156;28;19962;-69
2022/10/19 10:13:37;;;;;;;;;;;;;;;-142.75;100.00;77723.97;5094976;28;19985;-68
2022/10/19 10:16:04;;;;;;;;;;;;;;;-142.75;100.00;77759.44;5094891;28;19966;-63
2022/10/19 10:18:29;;;;;;;;;;;;;;;-142.75;100.00;77743.69;5094547;28;19920;-68
2022/10/19 10:20:59;;;;;;;;;;;;;;;-142.75;100.00;77749.59;5076864;28;19920;-68
2022/10/19 10:23:27;;;;;;;;;;;;;;;-142.75;100.00;77775.19;5094419;28;20442;-67
2022/10/19 10:25:56;;;;;;;;;;;;;;;-142.75;100.00;77757.47;5092571;28;19916;-68
2022/10/19 10:28:23;;;;;;;;;;;;;;;-142.75;100.00;77739.75;5094367;28;19916;-67
2022/10/19 10:30:52;;;;;;;;;;;;;;;-142.75;100.00;77704.28;5094677;28;19916;-68
2022/10/19 10:33:25;;;;;;;;;;;;;;;-142.75;100.00;77692.47;5094602;28;19916;-69
2022/10/19 10:35:54;;;;;;;;;;;;;;;-142.75;100.00;77672.78;5074253;28;19966;-68
2022/10/19 10:38:25;;;;;;;;;;;;;;;-142.75;100.00;77678.69;5073586;28;19981;-68
2022/10/19 10:40:52;;;;;;;;;;;;;;;-142.75;100.00;77653.09;5054600;28;19921;-68
2022/10/19 10:43:20;;;;;;;;;;;;;;;-142.75;100.00;77647.19;5072683;28;19950;-69
2022/10/19 10:45:47;;;;;;;;;;;;;;;-142.75;100.00;77613.72;5073989;28;19974;-68
2022/10/19 10:48:29;;;;;;;;;;;;;;;-142.75;100.00;77601.91;5073983;28;19928;-70
2022/10/19 10:50:56;;;;;;;;;;;;;;;-142.75;100.00;77594.03;5074349;28;20474;-68
2022/10/19 10:53:42;;;;;;;;;;;;;;;-142.75;100.00;77558.59;5056288;28;19916;-68
2022/10/19 10:56:34;;;;;;;;;;;;;;;-142.75;100.00;77523.16;5074259;28;19916;-69
2022/10/19 10:58:59;;;;;;;;;;;;;;;-142.75;100.00;77456.22;5067958;28;20003;-68
2022/10/19 11:01:30;;;;;;;;;;;;;;;-142.75;100.00;77462.13;5073553;28;20462;-66
2022/10/19 11:04:02;;;;;;;;;;;;;;;-142.75;100.00;77479.84;5056273;28;19937;-69
2022/10/19 11:06:28;;;;;;;;;;;;;;;-142.75;100.00;77499.53;5073726;28;19920;-67
2022/10/19 11:09:00;;;;;;;;;;;;;;;-142.75;100.00;77479.84;5073674;28;19916;-70
2022/10/19 11:11:34;;;;;;;;;;;;;;;-142.75;100.00;77477.88;5055950;28;19917;-69
2022/10/19 11:14:07;;;;;;;;;;;;;;;-142.75;100.00;77444.38;5073913;28;19943;-67
2022/10/19 11:16:37;;;;;;;;;;;;;;;-142.75;100.00;77430.59;5073382;28;19927;-68
2022/10/19 11:19:14;;;;;;;;;;;;;;;-142.75;100.00;77444.38;5073817;28;19916;-69
2022/10/19 11:21:53;;;;;;;;;;;;;;;-142.75;100.00;77430.59;5073755;28;19917;-69
2022/10/19 11:24:30;;;;;;;;;;;;;;;-142.75;100.00;77389.25;5073717;28;19921;-68
2022/10/19 11:27:04;;;;;;;;;;;;;;;-142.75;100.00;77412.88;5055393;28;19916;-68
2022/10/19 11:29:32;;;;;;;;;;;;;;;-142.75;100.00;77410.91;5080527;28;20410;-70
2022/10/19 11:31:57;;;;;;;;;;;;;;;-142.75;100.00;77422.72;5093809;28;19920;-69
2022/10/19 11:34:35;;;;;;;;;;;;;;;-142.75;100.00;77456.22;5074291;28;19924;-67
2022/10/19 11:37:04;;;;;;;;;;;;;;;-142.75;100.00;77464.09;5073000;28;19916;-67
2022/10/19 11:39:30;;;;;;;;;;;;;;;-142.75;100.00;77475.91;5112585;22;19924;-66
2022/10/19 11:42:03;;;;;;;;;;;;;;;-142.75;100.00;77495.59;5092144;28;19931;-66
2022/10/19 11:44:37;;;;;;;;;;;;;;;-142.75;100.00;77495.59;5093439;28;19928;-66
2022/10/19 11:47:05;;;;;;;;;;;;;;;-142.75;100.00;77495.59;5093260;28;19926;-65
2022/10/19 11:49:44;;;;;;;;;;;;;;;-142.75;100.00;77460.13;5075816;28;19970;-66
2022/10/19 11:52:15;;;;;;;;;;;;;;;-142.75;100.00;77416.81;5091218;28;19916;-66
2022/10/19 11:54:40;;;;;;;;;;;;;;;-142.75;100.00;77424.69;5093383;28;19916;-66
2022/10/19 11:57:14;;;;;;;;;;;;;;;-142.75;100.00;77426.66;5092929;28;20357;-66
2022/10/19 11:59:50;;;;;;;;;;;;;;;-142.75;100.00;77389.25;5093219;28;19962;-66
2022/10/19 12:02:15;;;;;;;;;;;;;;;-142.75;100.00;77357.75;5093192;28;19920;-66
2022/10/19 12:04:53;;;;;;;;;;;;;;;-142.75;100.00;77336.09;5093026;28;19927;-66
2022/10/19 12:07:37;;;;;;;;;;;;;;;-142.75;100.00;77357.75;5093031;28;20377;-66
2022/10/19 12:10:05;;;;;;;;;;;;;;;-142.75;100.00;77324.28;5093032;28;20014;-66
2022/10/19 12:12:33;;;;;;;;;;;;;;;-142.75;100.00;77314.44;5093278;28;20327;-66
2022/10/19 12:15:03;;;;;;;;;;;;;;;-142.75;100.00;77310.50;5092885;28;20258;-66
2022/10/19 12:17:31;;;;;;;;;;;;;;;-142.75;100.00;77273.09;5092794;28;19924;-66
2022/10/19 12:20:05;;;;;;;;;;;;;;;-142.75;100.00;77259.31;5092733;28;20445;-66
2022/10/19 12:22:32;;;;;;;;;;;;;;;-142.75;100.00;77259.31;5092826;28;19985;-66